Wild Horse, Colorado
Current Conditions -  °F | °C
As of 6:55 AM on Wednesday 28 Jan 2015 (Local Time) from KLIC Reporting Station
Clear Clear  
Wind Chill: 29°   Ceiling: Unl
Heat Index: 37°   Visibility: 10mi
Dew Point: 24°   Wind: 12mph
Humidity: 59%   Direction: 300°WNW
Pressure: 30.03"   Gusts: NA
Location:  38.83°N, 103.01°W
Report Text: KLIC 281355Z AUTO 30010KT 10SM CLR 03/M04 A3003 RMK AO2 SLP168 T00281044
Loading
Personal Weather Stations






























Interactive Weather Map New forecast layout! Learn more

10-Day Weather Forecast

Advertisements
Track Severe Weather on mobile